SLTR

Teniente Av. Jorge Henrich Arauz Airport

Trinidad, Bolivia
METAR SLTR 202300Z 00000KT 9999 FEW017 SCT200 28/24 Q1008
Observed Flight Rules
Nov-20 @ 23:00 UTC (3 hours ago) Visual Flight Rules
Visibility Clouds
10,000+ meters
  • Few at 1,700' AGL
  • Scattered at 20,000' AGL
Temperatures Readings
Current 28°C / 82°F
Dewpoint 24°C / 75°F
Humidity 79%
Altimeter 29.76" Hg
Pressure 1008 hPa
Elevation 157
METAR SLTR 202300Z 00000KT 9999 FEW017 SCT200 28/24 Q1008
Observed Flight Rules
Nov-20 @ 23:00 UTC
(3 hours ago)
VFR
Clouds
  • Few at 1,700' AGL
  • Scattered at 20,000' AGL
Temperature Dewpoint
28°C / 82°F 24°C / 75°F
Humidity Altimeter Pressure
79% 29.76" Hg 1008 hPa